createdAt,value
2022-08-18T00:03:00.475Z,1008.12
2022-08-18T00:17:49.188Z,1008.08
2022-08-18T00:32:49.423Z,1007.95
2022-08-18T00:47:49.430Z,1007.93
2022-08-18T01:02:49.518Z,1007.89
2022-08-18T01:17:49.742Z,1007.84
2022-08-18T01:32:51.018Z,1007.79
2022-08-18T01:47:53.089Z,1007.68
2022-08-18T02:02:58.657Z,1007.59
2022-08-18T02:17:58.300Z,1007.36
2022-08-18T02:32:58.411Z,1007.40
2022-08-18T02:47:58.993Z,1007.48
2022-08-18T03:02:59.602Z,1007.39
2022-08-18T03:18:00.143Z,1007.43
2022-08-18T03:33:00.421Z,1007.45
2022-08-18T03:48:00.331Z,1007.47
2022-08-18T04:03:00.482Z,1007.55
2022-08-18T04:18:03.351Z,1007.63
2022-08-18T04:33:04.624Z,1007.63
2022-08-18T04:48:04.705Z,1007.83
2022-08-18T05:03:04.828Z,1007.92
2022-08-18T05:18:08.050Z,1008.04
2022-08-18T05:33:13.113Z,1008.27
2022-08-18T05:48:13.215Z,1008.34
2022-08-18T06:03:13.425Z,1008.31
2022-08-18T06:18:13.410Z,1008.26
2022-08-18T06:33:13.523Z,1008.38
2022-08-18T06:48:15.695Z,1008.23
2022-08-18T07:03:15.935Z,1008.37
2022-08-18T07:18:16.052Z,1008.42
2022-08-18T07:33:16.112Z,1008.38
2022-08-18T07:48:37.054Z,1008.39
2022-08-18T08:03:21.287Z,1008.50
2022-08-18T08:18:21.352Z,1008.73
2022-08-18T08:33:21.423Z,1008.83
2022-08-18T08:48:21.524Z,1008.82
2022-08-18T09:03:30.198Z,1008.74
2022-08-18T09:18:27.214Z,1008.57
2022-08-18T09:33:27.920Z,1008.38
2022-08-18T09:48:28.671Z,1008.35
2022-08-18T10:03:31.525Z,1008.16
2022-08-18T10:18:32.067Z,1008.10
2022-08-18T10:33:32.147Z,1008.07
2022-08-18T10:48:33.495Z,1008.12
2022-08-18T11:18:43.009Z,1007.91
2022-08-18T11:33:43.757Z,1007.87
2022-08-18T11:48:51.861Z,1007.94
2022-08-18T12:03:50.185Z,1007.71
2022-08-18T12:18:50.434Z,1007.59
2022-08-18T12:33:59.939Z,1007.46
2022-08-18T12:48:58.744Z,1007.31
2022-08-18T13:19:06.089Z,1007.16
2022-08-18T13:34:15.203Z,1007.03
2022-08-18T13:49:13.543Z,1006.92
2022-08-18T14:04:20.590Z,1006.74
2022-08-18T14:19:22.729Z,1006.53
2022-08-18T14:34:28.510Z,1006.68
2022-08-18T14:49:29.106Z,1007.13
2022-08-18T15:04:29.929Z,1007.23
2022-08-18T15:19:58.554Z,1007.27
2022-08-18T15:34:46.653Z,1007.30
2022-08-18T15:49:42.339Z,1006.87
2022-08-18T16:04:43.140Z,1006.66
2022-08-18T16:19:44.998Z,1006.59
2022-08-18T16:34:46.087Z,1006.59
2022-08-18T16:49:46.264Z,1007.28
2022-08-18T17:04:46.261Z,1007.54
2022-08-18T17:19:46.349Z,1007.76
2022-08-18T17:34:46.491Z,1007.44
2022-08-18T17:49:46.834Z,1007.48
2022-08-18T18:04:48.980Z,1007.53
2022-08-18T18:19:48.800Z,1007.31
2022-08-18T18:34:49.325Z,1007.38
2022-08-18T18:49:49.453Z,1007.38
2022-08-18T19:04:50.870Z,1007.70
2022-08-18T19:19:54.574Z,1007.88
2022-08-18T19:34:55.826Z,1007.72
2022-08-18T19:49:56.943Z,1007.86
2022-08-18T20:04:57.878Z,1007.88
2022-08-18T20:20:00.089Z,1007.81
2022-08-18T20:35:00.189Z,1007.91
2022-08-18T20:49:59.757Z,1007.98
2022-08-18T21:05:01.611Z,1008.04
2022-08-18T21:20:01.676Z,1008.04
2022-08-18T21:35:02.274Z,1007.71
2022-08-18T21:50:01.869Z,1007.74
2022-08-18T22:05:02.191Z,1007.64
2022-08-18T22:20:03.744Z,1007.72
2022-08-18T22:35:05.207Z,1007.73
2022-08-18T22:50:05.625Z,1007.68
2022-08-18T23:05:05.970Z,1007.61
2022-08-18T23:20:06.367Z,1007.89
2022-08-18T23:35:11.631Z,1008.00
2022-08-18T23:50:11.268Z,1007.80
